sensor_id;sensor_type;location;lat;lon;timestamp;pressure;altitude;pressure_sealevel;temperature;humidity
46690;BME280;32423;45.398;10.874;2023-08-06T00:01:53;99750.97;;;23.37;58.71
46690;BME280;32423;45.398;10.874;2023-08-06T00:04:45;99754.09;;;23.19;59.00
46690;BME280;32423;45.398;10.874;2023-08-06T00:07:34;99747.03;;;23.15;60.20
46690;BME280;32423;45.398;10.874;2023-08-06T00:10:23;99747.19;;;23.51;59.28
46690;BME280;32423;45.398;10.874;2023-08-06T00:13:13;99732.25;;;23.64;58.89
46690;BME280;32423;45.398;10.874;2023-08-06T00:16:14;99735.00;;;23.64;57.78
46690;BME280;32423;45.398;10.874;2023-08-06T00:19:06;99736.38;;;23.56;58.19
46690;BME280;32423;45.398;10.874;2023-08-06T00:21:55;99724.31;;;23.63;58.48
46690;BME280;32423;45.398;10.874;2023-08-06T00:24:42;99729.25;;;23.75;57.87
46690;BME280;32423;45.398;10.874;2023-08-06T00:27:34;99729.44;;;23.84;57.77
46690;BME280;32423;45.398;10.874;2023-08-06T00:30:27;99724.25;;;23.86;57.53
46690;BME280;32423;45.398;10.874;2023-08-06T00:33:19;99730.94;;;23.88;57.28
46690;BME280;32423;45.398;10.874;2023-08-06T00:36:11;99724.69;;;23.84;57.27
46690;BME280;32423;45.398;10.874;2023-08-06T00:39:00;99729.34;;;23.87;57.29
46690;BME280;32423;45.398;10.874;2023-08-06T00:41:52;99722.59;;;23.88;57.16
46690;BME280;32423;45.398;10.874;2023-08-06T00:44:44;99724.16;;;23.90;57.20
46690;BME280;32423;45.398;10.874;2023-08-06T00:47:36;99722.19;;;23.90;57.14
46690;BME280;32423;45.398;10.874;2023-08-06T00:50:28;99708.72;;;23.88;56.99
46690;BME280;32423;45.398;10.874;2023-08-06T00:53:20;99709.50;;;23.89;57.05
46690;BME280;32423;45.398;10.874;2023-08-06T00:56:12;99714.28;;;23.88;57.11
46690;BME280;32423;45.398;10.874;2023-08-06T00:59:03;99710.28;;;23.90;57.03
46690;BME280;32423;45.398;10.874;2023-08-06T01:01:56;99702.38;;;23.88;56.91
46690;BME280;32423;45.398;10.874;2023-08-06T01:04:48;99702.03;;;23.86;56.92
46690;BME280;32423;45.398;10.874;2023-08-06T01:07:51;99700.84;;;23.67;56.92
46690;BME280;32423;45.398;10.874;2023-08-06T01:10:47;99705.59;;;23.47;57.83
46690;BME280;32423;45.398;10.874;2023-08-06T01:16:33;99694.97;;;23.22;57.84
46690;BME280;32423;45.398;10.874;2023-08-06T01:19:25;99698.91;;;23.44;58.54
46690;BME280;32423;45.398;10.874;2023-08-06T01:22:17;99690.91;;;23.50;58.33
46690;BME280;32423;45.398;10.874;2023-08-06T01:25:09;99692.47;;;23.51;57.55
46690;BME280;32423;45.398;10.874;2023-08-06T01:27:58;99693.00;;;23.23;58.96
46690;BME280;32423;45.398;10.874;2023-08-06T01:30:52;99690.63;;;23.21;58.72
46690;BME280;32423;45.398;10.874;2023-08-06T01:33:44;99689.44;;;22.79;60.50
46690;BME280;32423;45.398;10.874;2023-08-06T01:36:36;99689.94;;;22.74;60.64
46690;BME280;32423;45.398;10.874;2023-08-06T01:39:29;99687.56;;;22.73;60.46
46690;BME280;32423;45.398;10.874;2023-08-06T01:42:23;99699.56;;;22.89;61.08
46690;BME280;32423;45.398;10.874;2023-08-06T01:45:15;99692.16;;;23.26;60.04
46690;BME280;32423;45.398;10.874;2023-08-06T01:48:07;99684.06;;;23.55;59.10
46690;BME280;32423;45.398;10.874;2023-08-06T01:50:59;99687.31;;;23.69;58.56
46690;BME280;32423;45.398;10.874;2023-08-06T01:53:51;99678.84;;;23.76;58.30
46690;BME280;32423;45.398;10.874;2023-08-06T01:56:42;99682.66;;;23.82;58.26
46690;BME280;32423;45.398;10.874;2023-08-06T01:59:34;99670.28;;;23.87;57.96
46690;BME280;32423;45.398;10.874;2023-08-06T02:02:26;99670.19;;;23.91;58.12
46690;BME280;32423;45.398;10.874;2023-08-06T02:05:16;99669.00;;;23.92;57.87
46690;BME280;32423;45.398;10.874;2023-08-06T02:08:05;99663.06;;;23.90;57.71
46690;BME280;32423;45.398;10.874;2023-08-06T02:10:55;99659.50;;;23.89;57.84
46690;BME280;32423;45.398;10.874;2023-08-06T02:13:47;99658.66;;;23.92;57.81
46690;BME280;32423;45.398;10.874;2023-08-06T02:16:39;99651.09;;;23.93;57.89
46690;BME280;32423;45.398;10.874;2023-08-06T02:19:31;99642.06;;;23.88;58.02
46690;BME280;32423;45.398;10.874;2023-08-06T02:22:23;99636.88;;;23.91;57.92
46690;BME280;32423;45.398;10.874;2023-08-06T02:25:15;99649.09;;;23.93;57.98
46690;BME280;32423;45.398;10.874;2023-08-06T02:28:07;99635.22;;;23.93;57.98
46690;BME280;32423;45.398;10.874;2023-08-06T02:30:58;99635.16;;;23.97;57.91
46690;BME280;32423;45.398;10.874;2023-08-06T02:33:49;99641.03;;;23.99;58.02
46690;BME280;32423;45.398;10.874;2023-08-06T02:36:41;99637.16;;;23.96;58.04
46690;BME280;32423;45.398;10.874;2023-08-06T02:39:33;99632.38;;;23.97;58.07
46690;BME280;32423;45.398;10.874;2023-08-06T02:42:20;99625.25;;;23.96;57.92
46690;BME280;32423;45.398;10.874;2023-08-06T02:45:12;99621.25;;;23.97;57.83
46690;BME280;32423;45.398;10.874;2023-08-06T02:48:04;99613.25;;;23.99;57.68
46690;BME280;32423;45.398;10.874;2023-08-06T02:50:56;99618.03;;;23.98;57.71
46690;BME280;32423;45.398;10.874;2023-08-06T02:53:47;99621.25;;;23.97;57.66
46690;BME280;32423;45.398;10.874;2023-08-06T02:56:35;99617.34;;;23.94;57.82
46690;BME280;32423;45.398;10.874;2023-08-06T02:59:39;99602.25;;;23.95;57.61
46690;BME280;32423;45.398;10.874;2023-08-06T03:02:41;99601.47;;;23.95;57.91
46690;BME280;32423;45.398;10.874;2023-08-06T03:05:54;99610.94;;;23.97;58.35
46690;BME280;32423;45.398;10.874;2023-08-06T03:08:55;99601.81;;;23.97;58.64
46690;BME280;32423;45.398;10.874;2023-08-06T03:11:47;99589.16;;;23.96;58.87
46690;BME280;32423;45.398;10.874;2023-08-06T03:14:40;99582.38;;;23.97;59.08
46690;BME280;32423;45.398;10.874;2023-08-06T03:17:32;99575.25;;;23.96;59.27
46690;BME280;32423;45.398;10.874;2023-08-06T03:20:22;99572.91;;;23.94;59.42
46690;BME280;32423;45.398;10.874;2023-08-06T03:23:14;99587.56;;;23.95;59.55
46690;BME280;32423;45.398;10.874;2023-08-06T03:26:06;99594.00;;;23.92;59.80
46690;BME280;32423;45.398;10.874;2023-08-06T03:28:58;99587.22;;;23.93;59.80
46690;BME280;32423;45.398;10.874;2023-08-06T03:31:50;99589.66;;;23.91;59.79
46690;BME280;32423;45.398;10.874;2023-08-06T03:34:43;99594.19;;;23.49;60.46
46690;BME280;32423;45.398;10.874;2023-08-06T03:37:33;99589.06;;;23.08;61.97
46690;BME280;32423;45.398;10.874;2023-08-06T03:40:24;99585.59;;;22.60;63.90
46690;BME280;32423;45.398;10.874;2023-08-06T03:43:16;99582.78;;;22.41;64.18
46690;BME280;32423;45.398;10.874;2023-08-06T03:46:07;99588.81;;;22.36;64.37
46690;BME280;32423;45.398;10.874;2023-08-06T03:48:59;99585.19;;;22.15;65.10
46690;BME280;32423;45.398;10.874;2023-08-06T03:51:48;99577.53;;;22.00;66.22
46690;BME280;32423;45.398;10.874;2023-08-06T03:54:40;99573.38;;;21.88;66.17
46690;BME280;32423;45.398;10.874;2023-08-06T03:57:32;99567.44;;;21.59;66.71
46690;BME280;32423;45.398;10.874;2023-08-06T04:00:24;99562.66;;;21.37;67.30
46690;BME280;32423;45.398;10.874;2023-08-06T04:03:14;99552.31;;;21.41;67.52
46690;BME280;32423;45.398;10.874;2023-08-06T04:06:06;99557.38;;;21.46;68.48
46690;BME280;32423;45.398;10.874;2023-08-06T04:08:57;99565.47;;;21.60;69.33
46690;BME280;32423;45.398;10.874;2023-08-06T04:11:49;99566.84;;;22.02;67.20
46690;BME280;32423;45.398;10.874;2023-08-06T04:14:39;99557.13;;;22.60;66.08
46690;BME280;32423;45.398;10.874;2023-08-06T04:17:31;99552.25;;;22.87;64.83
46690;BME280;32423;45.398;10.874;2023-08-06T04:20:23;99548.69;;;23.07;63.76
46690;BME280;32423;45.398;10.874;2023-08-06T04:23:15;99553.06;;;23.24;62.74
46690;BME280;32423;45.398;10.874;2023-08-06T04:26:07;99545.41;;;23.31;62.40
46690;BME280;32423;45.398;10.874;2023-08-06T04:28:56;99545.66;;;23.37;61.66
46690;BME280;32423;45.398;10.874;2023-08-06T04:31:48;99544.44;;;22.82;60.91
46690;BME280;32423;45.398;10.874;2023-08-06T04:34:40;99546.56;;;22.75;62.92
46690;BME280;32423;45.398;10.874;2023-08-06T04:37:32;99537.91;;;22.30;62.50
46690;BME280;32423;45.398;10.874;2023-08-06T04:40:24;99548.34;;;21.95;63.53
46690;BME280;32423;45.398;10.874;2023-08-06T04:43:16;99544.03;;;21.67;65.44
46690;BME280;32423;45.398;10.874;2023-08-06T04:46:10;99540.63;;;21.56;65.12
46690;BME280;32423;45.398;10.874;2023-08-06T04:49:02;99546.47;;;21.62;65.50
46690;BME280;32423;45.398;10.874;2023-08-06T04:51:54;99551.38;;;21.51;65.98
46690;BME280;32423;45.398;10.874;2023-08-06T04:54:46;99552.69;;;21.43;66.79
46690;BME280;32423;45.398;10.874;2023-08-06T04:57:38;99553.16;;;21.38;67.78
46690;BME280;32423;45.398;10.874;2023-08-06T05:00:27;99547.81;;;21.23;68.13
46690;BME280;32423;45.398;10.874;2023-08-06T05:03:19;99546.16;;;21.29;69.19
46690;BME280;32423;45.398;10.874;2023-08-06T05:06:11;99549.09;;;21.15;68.05
46690;BME280;32423;45.398;10.874;2023-08-06T05:09:03;99543.91;;;21.21;67.82
46690;BME280;32423;45.398;10.874;2023-08-06T05:11:55;99560.16;;;21.46;66.97
46690;BME280;32423;45.398;10.874;2023-08-06T05:14:47;99561.19;;;21.55;66.68
46690;BME280;32423;45.398;10.874;2023-08-06T05:17:39;99562.03;;;21.52;66.75
46690;BME280;32423;45.398;10.874;2023-08-06T05:20:33;99568.31;;;21.56;66.10
46690;BME280;32423;45.398;10.874;2023-08-06T05:23:27;99572.16;;;21.62;66.88
46690;BME280;32423;45.398;10.874;2023-08-06T05:26:16;99572.84;;;21.70;67.68
46690;BME280;32423;45.398;10.874;2023-08-06T05:29:08;99576.84;;;21.65;68.26
46690;BME280;32423;45.398;10.874;2023-08-06T05:32:00;99570.06;;;21.70;68.23
46690;BME280;32423;45.398;10.874;2023-08-06T05:34:51;99575.03;;;21.82;67.39
46690;BME280;32423;45.398;10.874;2023-08-06T05:37:43;99577.22;;;21.94;66.58
46690;BME280;32423;45.398;10.874;2023-08-06T05:40:38;99576.66;;;22.30;65.45
46690;BME280;32423;45.398;10.874;2023-08-06T05:43:30;99574.72;;;22.50;63.71
46690;BME280;32423;45.398;10.874;2023-08-06T05:46:22;99570.97;;;22.60;62.88
46690;BME280;32423;45.398;10.874;2023-08-06T05:49:13;99578.97;;;22.78;62.65
46690;BME280;32423;45.398;10.874;2023-08-06T05:52:05;99576.88;;;22.85;61.79
46690;BME280;32423;45.398;10.874;2023-08-06T05:54:57;99570.38;;;23.12;61.29
46690;BME280;32423;45.398;10.874;2023-08-06T05:57:49;99569.75;;;23.04;60.18
46690;BME280;32423;45.398;10.874;2023-08-06T06:00:41;99574.88;;;23.06;59.79
46690;BME280;32423;45.398;10.874;2023-08-06T06:03:33;99579.25;;;23.03;60.50
46690;BME280;32423;45.398;10.874;2023-08-06T06:06:24;99585.72;;;23.16;60.42
46690;BME280;32423;45.398;10.874;2023-08-06T06:09:09;99596.41;;;23.18;60.01
46690;BME280;32423;45.398;10.874;2023-08-06T06:12:01;99600.94;;;23.28;59.71
46690;BME280;32423;45.398;10.874;2023-08-06T06:14:53;99599.44;;;23.43;58.92
46690;BME280;32423;45.398;10.874;2023-08-06T06:17:42;99604.69;;;23.57;59.29
46690;BME280;32423;45.398;10.874;2023-08-06T06:20:34;99599.63;;;23.88;57.94
46690;BME280;32423;45.398;10.874;2023-08-06T06:23:26;99592.97;;;24.02;57.54
46690;BME280;32423;45.398;10.874;2023-08-06T06:26:18;99588.81;;;24.26;56.99
46690;BME280;32423;45.398;10.874;2023-08-06T06:29:10;99590.19;;;24.50;56.29
46690;BME280;32423;45.398;10.874;2023-08-06T06:32:02;99601.41;;;24.76;55.55
46690;BME280;32423;45.398;10.874;2023-08-06T06:34:51;99593.69;;;24.83;55.79
46690;BME280;32423;45.398;10.874;2023-08-06T06:37:41;99593.72;;;25.37;54.13
46690;BME280;32423;45.398;10.874;2023-08-06T06:40:30;99596.38;;;25.70;53.60
46690;BME280;32423;45.398;10.874;2023-08-06T06:43:19;99605.47;;;26.08;52.32
46690;BME280;32423;45.398;10.874;2023-08-06T06:46:09;99621.41;;;26.46;51.03
46690;BME280;32423;45.398;10.874;2023-08-06T06:49:06;99625.25;;;26.61;49.61
46690;BME280;32423;45.398;10.874;2023-08-06T06:51:57;99610.00;;;26.87;48.45
46690;BME280;32423;45.398;10.874;2023-08-06T06:54:51;99623.97;;;26.87;47.28
46690;BME280;32423;45.398;10.874;2023-08-06T06:57:43;99622.78;;;26.97;45.48
46690;BME280;32423;45.398;10.874;2023-08-06T07:00:33;99620.25;;;27.34;44.52
46690;BME280;32423;45.398;10.874;2023-08-06T07:03:25;99622.25;;;27.77;43.44
46690;BME280;32423;45.398;10.874;2023-08-06T07:06:15;99628.97;;;27.88;43.91
46690;BME280;32423;45.398;10.874;2023-08-06T07:09:07;99637.22;;;28.32;42.93
46690;BME280;32423;45.398;10.874;2023-08-06T07:11:59;99632.41;;;30.68;38.01
46690;BME280;32423;45.398;10.874;2023-08-06T07:14:51;99638.25;;;34.10;31.16
46690;BME280;32423;45.398;10.874;2023-08-06T07:17:43;99632.41;;;35.43;28.44
46690;BME280;32423;45.398;10.874;2023-08-06T07:20:35;99636.03;;;36.16;26.46
46690;BME280;32423;45.398;10.874;2023-08-06T07:23:27;99644.34;;;36.82;25.63
46690;BME280;32423;45.398;10.874;2023-08-06T07:26:17;99640.09;;;38.12;24.01
46690;BME280;32423;45.398;10.874;2023-08-06T07:29:06;99635.91;;;38.19;23.94
46690;BME280;32423;45.398;10.874;2023-08-06T07:31:57;99639.72;;;38.21;23.55
46690;BME280;32423;45.398;10.874;2023-08-06T07:34:50;99638.00;;;38.61;23.10
46690;BME280;32423;45.398;10.874;2023-08-06T07:37:42;99640.72;;;39.47;22.14
46690;BME280;32423;45.398;10.874;2023-08-06T07:40:34;99638.81;;;39.87;21.31
46690;BME280;32423;45.398;10.874;2023-08-06T07:43:27;99643.56;;;40.11;20.62
46690;BME280;32423;45.398;10.874;2023-08-06T07:46:19;99642.59;;;40.35;20.70
46690;BME280;32423;45.398;10.874;2023-08-06T07:49:13;99639.00;;;40.47;20.07
46690;BME280;32423;45.398;10.874;2023-08-06T07:52:05;99640.81;;;41.31;19.43
46690;BME280;32423;45.398;10.874;2023-08-06T07:54:57;99646.09;;;40.93;19.68
46690;BME280;32423;45.398;10.874;2023-08-06T07:57:49;99644.69;;;40.34;19.89
46690;BME280;32423;45.398;10.874;2023-08-06T08:00:38;99641.16;;;40.94;19.68
46690;BME280;32423;45.398;10.874;2023-08-06T08:03:29;99637.44;;;41.20;19.38
46690;BME280;32423;45.398;10.874;2023-08-06T08:06:21;99644.34;;;41.58;19.44
46690;BME280;32423;45.398;10.874;2023-08-06T08:09:11;99633.88;;;42.02;18.69
46690;BME280;32423;45.398;10.874;2023-08-06T08:12:03;99638.03;;;42.86;18.44
46690;BME280;32423;45.398;10.874;2023-08-06T08:14:53;99627.03;;;43.87;17.38
46690;BME280;32423;45.398;10.874;2023-08-06T08:17:44;99632.16;;;43.66;17.94
46690;BME280;32423;45.398;10.874;2023-08-06T08:20:36;99634.16;;;44.71;17.05
46690;BME280;32423;45.398;10.874;2023-08-06T08:23:28;99624.31;;;44.19;17.23
46690;BME280;32423;45.398;10.874;2023-08-06T08:26:20;99629.94;;;44.72;16.62
46690;BME280;32423;45.398;10.874;2023-08-06T08:29:12;99619.00;;;43.63;17.92
46690;BME280;32423;45.398;10.874;2023-08-06T08:32:04;99628.31;;;44.39;17.22
46690;BME280;32423;45.398;10.874;2023-08-06T08:34:57;99619.78;;;43.04;17.95
46690;BME280;32423;45.398;10.874;2023-08-06T08:37:49;99628.00;;;43.08;17.95
46690;BME280;32423;45.398;10.874;2023-08-06T08:40:41;99636.56;;;44.05;16.55
46690;BME280;32423;45.398;10.874;2023-08-06T08:43:32;99638.34;;;45.18;15.63
46690;BME280;32423;45.398;10.874;2023-08-06T08:46:25;99639.31;;;44.65;16.29
46690;BME280;32423;45.398;10.874;2023-08-06T08:49:17;99640.94;;;43.53;17.08
46690;BME280;32423;45.398;10.874;2023-08-06T08:52:10;99640.75;;;44.11;16.53
46690;BME280;32423;45.398;10.874;2023-08-06T08:54:59;99642.44;;;44.45;16.12
46690;BME280;32423;45.398;10.874;2023-08-06T08:57:52;99635.34;;;44.53;15.96
46690;BME280;32423;45.398;10.874;2023-08-06T09:00:44;99646.41;;;45.12;15.46
46690;BME280;32423;45.398;10.874;2023-08-06T09:03:34;99654.91;;;46.51;14.54
46690;BME280;32423;45.398;10.874;2023-08-06T09:06:23;99649.97;;;45.85;14.86
46690;BME280;32423;45.398;10.874;2023-08-06T09:09:19;99653.63;;;46.45;14.23
46690;BME280;32423;45.398;10.874;2023-08-06T09:12:19;99662.44;;;46.98;14.10
46690;BME280;32423;45.398;10.874;2023-08-06T09:15:08;99662.78;;;47.92;12.77
46690;BME280;32423;45.398;10.874;2023-08-06T09:18:00;99654.69;;;47.45;13.66
46690;BME280;32423;45.398;10.874;2023-08-06T09:21:00;99664.81;;;47.63;13.56
46690;BME280;32423;45.398;10.874;2023-08-06T09:23:52;99666.09;;;46.05;14.94
46690;BME280;32423;45.398;10.874;2023-08-06T09:26:45;99664.31;;;46.10;14.72
46690;BME280;32423;45.398;10.874;2023-08-06T09:29:32;99663.81;;;47.51;13.64
46690;BME280;32423;45.398;10.874;2023-08-06T09:32:22;99674.47;;;47.85;13.28
46690;BME280;32423;45.398;10.874;2023-08-06T09:35:18;99663.78;;;48.24;13.06
46690;BME280;32423;45.398;10.874;2023-08-06T09:38:13;99657.16;;;47.04;13.91
46690;BME280;32423;45.398;10.874;2023-08-06T09:41:05;99657.81;;;48.02;13.54
46690;BME280;32423;45.398;10.874;2023-08-06T09:43:57;99656.28;;;48.76;12.64
46690;BME280;32423;45.398;10.874;2023-08-06T09:46:49;99660.47;;;48.37;13.43
46690;BME280;32423;45.398;10.874;2023-08-06T09:49:42;99664.59;;;48.92;12.75
46690;BME280;32423;45.398;10.874;2023-08-06T09:52:32;99662.94;;;48.50;13.12
46690;BME280;32423;45.398;10.874;2023-08-06T09:55:23;99670.81;;;49.17;12.41
46690;BME280;32423;45.398;10.874;2023-08-06T09:58:16;99664.56;;;49.20;12.47
46690;BME280;32423;45.398;10.874;2023-08-06T10:01:05;99658.81;;;48.63;12.55
46690;BME280;32423;45.398;10.874;2023-08-06T10:03:54;99665.03;;;48.30;13.00
46690;BME280;32423;45.398;10.874;2023-08-06T10:06:47;99660.59;;;48.20;13.10
46690;BME280;32423;45.398;10.874;2023-08-06T10:09:42;99654.41;;;48.52;13.21
46690;BME280;32423;45.398;10.874;2023-08-06T10:12:36;99650.03;;;48.51;13.13
46690;BME280;32423;45.398;10.874;2023-08-06T10:15:29;99656.38;;;49.07;12.63
46690;BME280;32423;45.398;10.874;2023-08-06T10:18:20;99656.84;;;49.54;12.31
46690;BME280;32423;45.398;10.874;2023-08-06T10:21:12;99662.56;;;49.73;12.20
46690;BME280;32423;45.398;10.874;2023-08-06T10:24:04;99653.94;;;48.36;13.04
46690;BME280;32423;45.398;10.874;2023-08-06T10:26:56;99651.00;;;49.23;12.82
46690;BME280;32423;45.398;10.874;2023-08-06T10:29:50;99648.19;;;47.90;13.38
46690;BME280;32423;45.398;10.874;2023-08-06T10:32:49;99638.72;;;48.17;13.34
46690;BME280;32423;45.398;10.874;2023-08-06T10:35:47;99642.25;;;48.44;12.99
46690;BME280;32423;45.398;10.874;2023-08-06T10:38:51;99638.28;;;48.11;13.11
46690;BME280;32423;45.398;10.874;2023-08-06T10:41:46;99642.13;;;47.96;13.34
46690;BME280;32423;45.398;10.874;2023-08-06T10:44:38;99640.44;;;49.56;12.55
46690;BME280;32423;45.398;10.874;2023-08-06T10:47:48;99642.22;;;47.15;14.11
46690;BME280;32423;45.398;10.874;2023-08-06T10:50:41;99643.13;;;48.18;13.43
46690;BME280;32423;45.398;10.874;2023-08-06T10:53:33;99640.38;;;48.00;13.49
46690;BME280;32423;45.398;10.874;2023-08-06T10:56:23;99639.78;;;48.12;13.24
46690;BME280;32423;45.398;10.874;2023-08-06T10:59:15;99640.59;;;48.51;13.17
46690;BME280;32423;45.398;10.874;2023-08-06T11:02:05;99634.19;;;48.33;12.72
46690;BME280;32423;45.398;10.874;2023-08-06T11:04:57;99638.88;;;47.36;13.82
46690;BME280;32423;45.398;10.874;2023-08-06T11:07:46;99636.81;;;47.92;13.52
46690;BME280;32423;45.398;10.874;2023-08-06T11:10:38;99628.16;;;46.75;14.13
46690;BME280;32423;45.398;10.874;2023-08-06T11:13:30;99624.28;;;46.46;14.35
46690;BME280;32423;45.398;10.874;2023-08-06T11:16:25;99618.34;;;45.03;15.83
46690;BME280;32423;45.398;10.874;2023-08-06T11:19:18;99616.84;;;44.94;15.70
46690;BME280;32423;45.398;10.874;2023-08-06T11:22:11;99621.34;;;45.45;14.97
46690;BME280;32423;45.398;10.874;2023-08-06T11:25:06;99609.97;;;44.90;14.98
46690;BME280;32423;45.398;10.874;2023-08-06T11:28:00;99597.38;;;46.68;13.57
46690;BME280;32423;45.398;10.874;2023-08-06T11:30:52;99599.91;;;47.08;13.24
46690;BME280;32423;45.398;10.874;2023-08-06T11:33:41;99599.19;;;44.98;14.93
46690;BME280;32423;45.398;10.874;2023-08-06T11:36:33;99594.34;;;45.40;14.28
46690;BME280;32423;45.398;10.874;2023-08-06T11:39:24;99586.88;;;44.02;15.47
46690;BME280;32423;45.398;10.874;2023-08-06T11:42:16;99581.56;;;44.69;14.70
46690;BME280;32423;45.398;10.874;2023-08-06T11:45:06;99585.19;;;44.69;15.17
46690;BME280;32423;45.398;10.874;2023-08-06T11:47:58;99571.78;;;40.39;18.60
46690;BME280;32423;45.398;10.874;2023-08-06T11:50:48;99574.63;;;40.65;18.11
46690;BME280;32423;45.398;10.874;2023-08-06T11:53:40;99578.34;;;40.34;18.79
46690;BME280;32423;45.398;10.874;2023-08-06T11:56:32;99568.75;;;39.65;19.40
46690;BME280;32423;45.398;10.874;2023-08-06T11:59:24;99560.16;;;36.72;23.31
46690;BME280;32423;45.398;10.874;2023-08-06T12:02:33;99551.53;;;34.64;26.06
46690;BME280;32423;45.398;10.874;2023-08-06T12:05:32;99553.97;;;33.23;27.80
46690;BME280;32423;45.398;10.874;2023-08-06T12:08:30;99554.94;;;31.93;30.01
46690;BME280;32423;45.398;10.874;2023-08-06T12:11:20;99560.75;;;31.69;28.98
46690;BME280;32423;45.398;10.874;2023-08-06T12:14:12;99566.88;;;31.38;30.65
46690;BME280;32423;45.398;10.874;2023-08-06T12:17:01;99576.31;;;30.97;31.28
46690;BME280;32423;45.398;10.874;2023-08-06T12:19:53;99573.13;;;30.51;31.85
46690;BME280;32423;45.398;10.874;2023-08-06T12:22:45;99576.69;;;30.90;31.71
46690;BME280;32423;45.398;10.874;2023-08-06T12:25:34;99566.28;;;30.43;32.12
46690;BME280;32423;45.398;10.874;2023-08-06T12:28:24;99556.88;;;30.31;34.62
46690;BME280;32423;45.398;10.874;2023-08-06T12:31:15;99569.94;;;30.34;34.94
46690;BME280;32423;45.398;10.874;2023-08-06T12:34:05;99571.13;;;30.66;33.95
46690;BME280;32423;45.398;10.874;2023-08-06T12:36:54;99568.81;;;30.41;34.75
46690;BME280;32423;45.398;10.874;2023-08-06T12:39:41;99564.44;;;30.64;34.59
46690;BME280;32423;45.398;10.874;2023-08-06T12:42:31;99566.19;;;30.37;33.68
46690;BME280;32423;45.398;10.874;2023-08-06T12:45:22;99579.13;;;30.11;34.07
46690;BME280;32423;45.398;10.874;2023-08-06T12:48:12;99573.16;;;30.42;33.56
46690;BME280;32423;45.398;10.874;2023-08-06T12:51:04;99571.25;;;30.24;33.95
46690;BME280;32423;45.398;10.874;2023-08-06T12:53:56;99561.13;;;30.50;30.49
46690;BME280;32423;45.398;10.874;2023-08-06T12:56:45;99575.47;;;30.52;33.00
46690;BME280;32423;45.398;10.874;2023-08-06T12:59:31;99566.56;;;30.69;33.03
46690;BME280;32423;45.398;10.874;2023-08-06T13:02:23;99569.22;;;30.72;31.97
46690;BME280;32423;45.398;10.874;2023-08-06T13:05:15;99574.75;;;30.96;32.13
46690;BME280;32423;45.398;10.874;2023-08-06T13:08:07;99574.41;;;31.03;32.07
46690;BME280;32423;45.398;10.874;2023-08-06T13:10:59;99582.06;;;30.40;32.77
46690;BME280;32423;45.398;10.874;2023-08-06T13:13:48;99561.94;;;30.42;31.40
46690;BME280;32423;45.398;10.874;2023-08-06T13:16:40;99553.22;;;30.16;33.46
46690;BME280;32423;45.398;10.874;2023-08-06T13:19:33;99556.50;;;30.38;26.20
46690;BME280;32423;45.398;10.874;2023-08-06T13:22:25;99553.00;;;30.52;29.54
46690;BME280;32423;45.398;10.874;2023-08-06T13:25:17;99553.19;;;30.64;27.50
46690;BME280;32423;45.398;10.874;2023-08-06T13:28:07;99559.91;;;30.18;30.83
46690;BME280;32423;45.398;10.874;2023-08-06T13:30:56;99539.69;;;28.79;34.62
46690;BME280;32423;45.398;10.874;2023-08-06T13:33:45;99557.06;;;29.62;31.06
46690;BME280;32423;45.398;10.874;2023-08-06T13:36:37;99561.13;;;29.61;31.31
46690;BME280;32423;45.398;10.874;2023-08-06T13:39:29;99568.56;;;30.06;30.55
46690;BME280;32423;45.398;10.874;2023-08-06T13:42:21;99560.75;;;30.10;29.48
46690;BME280;32423;45.398;10.874;2023-08-06T13:45:11;99555.66;;;30.23;30.85
46690;BME280;32423;45.398;10.874;2023-08-06T13:48:01;99557.47;;;30.11;30.70
46690;BME280;32423;45.398;10.874;2023-08-06T13:50:53;99554.59;;;29.88;31.66
46690;BME280;32423;45.398;10.874;2023-08-06T13:53:45;99554.53;;;29.73;30.89
46690;BME280;32423;45.398;10.874;2023-08-06T13:56:35;99563.28;;;28.97;30.07
46690;BME280;32423;45.398;10.874;2023-08-06T13:59:24;99571.81;;;28.57;31.30
46690;BME280;32423;45.398;10.874;2023-08-06T14:02:13;99566.22;;;28.47;31.00
46690;BME280;32423;45.398;10.874;2023-08-06T14:05:05;99558.28;;;28.37;31.73
46690;BME280;32423;45.398;10.874;2023-08-06T14:07:57;99555.94;;;28.17;32.32
46690;BME280;32423;45.398;10.874;2023-08-06T14:10:47;99547.75;;;27.83;33.67
46690;BME280;32423;45.398;10.874;2023-08-06T14:13:36;99548.72;;;27.98;35.36
46690;BME280;32423;45.398;10.874;2023-08-06T14:16:28;99555.16;;;28.35;33.28
46690;BME280;32423;45.398;10.874;2023-08-06T14:19:15;99554.53;;;28.22;32.82
46690;BME280;32423;45.398;10.874;2023-08-06T14:22:04;99553.59;;;28.16;31.75
46690;BME280;32423;45.398;10.874;2023-08-06T14:24:54;99552.03;;;28.15;32.57
46690;BME280;32423;45.398;10.874;2023-08-06T14:27:47;99553.38;;;28.01;31.40
46690;BME280;32423;45.398;10.874;2023-08-06T14:30:39;99552.13;;;27.93;34.03
46690;BME280;32423;45.398;10.874;2023-08-06T14:33:31;99560.44;;;28.15;31.90
46690;BME280;32423;45.398;10.874;2023-08-06T14:36:24;99552.53;;;28.13;33.76
46690;BME280;32423;45.398;10.874;2023-08-06T14:39:15;99550.81;;;28.16;31.73
46690;BME280;32423;45.398;10.874;2023-08-06T14:42:06;99558.13;;;28.31;32.18
46690;BME280;32423;45.398;10.874;2023-08-06T14:44:58;99555.66;;;28.42;31.91
46690;BME280;32423;45.398;10.874;2023-08-06T14:47:47;99558.47;;;28.52;31.15
46690;BME280;32423;45.398;10.874;2023-08-06T14:50:39;99547.28;;;28.42;30.86
46690;BME280;32423;45.398;10.874;2023-08-06T14:53:31;99549.91;;;28.37;31.19
46690;BME280;32423;45.398;10.874;2023-08-06T14:56:20;99549.75;;;28.40;31.96
46690;BME280;32423;45.398;10.874;2023-08-06T14:59:12;99565.44;;;28.38;31.63
46690;BME280;32423;45.398;10.874;2023-08-06T15:02:04;99563.28;;;28.42;31.24